createdAt,value
2018-12-30T00:01:38.399Z,97443.42
2018-12-30T00:04:28.126Z,97424.00
2018-12-30T00:07:12.466Z,97444.45
2018-12-30T00:10:02.967Z,97433.41
2018-12-30T00:12:52.769Z,97450.84
2018-12-30T00:15:37.375Z,97448.44
2018-12-30T00:18:27.557Z,97443.64
2018-12-30T00:21:17.329Z,97445.30
2018-12-30T00:24:07.097Z,97448.80
2018-12-30T00:26:49.741Z,97451.97
2018-12-30T00:29:58.683Z,97458.41
2018-12-30T00:32:43.209Z,97433.09
2018-12-30T00:35:33.054Z,97450.72
2018-12-30T00:38:22.863Z,97453.95
2018-12-30T00:46:35.689Z,97473.77
2018-12-30T00:49:25.525Z,97479.95
2018-12-30T00:52:15.367Z,97480.17
2018-12-30T00:55:05.269Z,97497.18
2018-12-30T00:57:55.022Z,97498.44
2018-12-30T01:00:37.599Z,97487.64
2018-12-30T01:03:27.687Z,97487.38
2018-12-30T01:06:17.615Z,97485.00
2018-12-30T01:09:02.062Z,97496.70
2018-12-30T01:11:44.977Z,97502.87
2018-12-30T01:14:34.777Z,97516.66
2018-12-30T01:17:16.889Z,97532.68
2018-12-30T01:20:06.701Z,97541.27
2018-12-30T01:22:56.541Z,97547.45
2018-12-30T01:25:46.534Z,97540.23
2018-12-30T01:28:36.420Z,97529.99
2018-12-30T01:31:26.179Z,97541.99
2018-12-30T01:34:15.968Z,97537.96
2018-12-30T01:37:05.705Z,97529.14
2018-12-30T01:39:48.102Z,97521.80
2018-12-30T01:42:37.894Z,97490.92
2018-12-30T01:45:19.839Z,97502.01
2018-12-30T01:48:09.588Z,97508.63
2018-12-30T01:50:51.995Z,97499.02
2018-12-30T01:53:41.745Z,97505.77
2018-12-30T01:56:28.981Z,97512.18
2018-12-30T01:59:18.757Z,97517.41
2018-12-30T02:02:01.465Z,97505.47
2018-12-30T02:04:51.411Z,97500.66
2018-12-30T02:07:33.756Z,97503.63
2018-12-30T02:10:23.499Z,97505.99
2018-12-30T02:13:06.125Z,97492.71
2018-12-30T02:15:55.887Z,97509.80
2018-12-30T02:18:40.215Z,97506.98
2018-12-30T02:21:30.071Z,97516.21
2018-12-30T02:24:12.964Z,97518.31
2018-12-30T02:27:02.693Z,97495.70
2018-12-30T02:29:46.281Z,97493.78
2018-12-30T02:32:36.006Z,97514.23
2018-12-30T02:35:18.901Z,97517.73
2018-12-30T02:38:08.670Z,97514.77
2018-12-30T02:40:52.646Z,97494.63
2018-12-30T02:43:42.770Z,97509.08
2018-12-30T02:46:27.308Z,97517.59
2018-12-30T02:49:17.041Z,97501.99
2018-12-30T02:51:59.236Z,97512.92
2018-12-30T02:57:54.953Z,97493.98
2018-12-30T03:00:37.105Z,97486.53
2018-12-30T03:03:27.188Z,97508.73
2018-12-30T03:06:17.036Z,97492.63
2018-12-30T03:09:08.125Z,97496.92
2018-12-30T03:11:57.859Z,97514.89
2018-12-30T03:14:40.210Z,97527.24
2018-12-30T03:17:30.002Z,97520.83
2018-12-30T03:20:18.485Z,97524.41
2018-12-30T03:23:08.393Z,97538.34
2018-12-30T03:28:55.119Z,97532.78
2018-12-30T03:31:45.040Z,97572.42
2018-12-30T03:34:34.872Z,97547.09
2018-12-30T03:37:18.116Z,97576.50
2018-12-30T03:40:00.448Z,97561.63
2018-12-30T03:42:50.230Z,97560.28
2018-12-30T03:48:47.680Z,97532.76
2018-12-30T03:51:29.753Z,97529.31
2018-12-30T03:54:19.660Z,97510.92
2018-12-30T03:57:09.500Z,97546.95
2018-12-30T03:59:59.500Z,97544.22
2018-12-30T04:02:49.279Z,97571.55
2018-12-30T04:05:39.061Z,97557.75
2018-12-30T04:08:28.995Z,97573.01
2018-12-30T04:11:18.812Z,97567.03
2018-12-30T04:14:08.539Z,97585.91
2018-12-30T04:17:17.352Z,97568.88
2018-12-30T04:20:07.173Z,97567.79
2018-12-30T04:22:49.449Z,97567.58
2018-12-30T04:25:39.172Z,97570.22
2018-12-30T04:28:21.847Z,97539.87
2018-12-30T04:31:11.665Z,97577.20
2018-12-30T04:33:54.293Z,97597.16
2018-12-30T04:36:44.096Z,97575.92
2018-12-30T04:39:27.917Z,97573.60
2018-12-30T04:42:10.741Z,97556.15
2018-12-30T04:48:03.648Z,97531.00
2018-12-30T04:50:45.812Z,97527.52
2018-12-30T04:53:35.696Z,97534.80
2018-12-30T04:56:25.502Z,97539.02
2018-12-30T04:59:15.396Z,97546.05
2018-12-30T05:02:05.123Z,97521.25
2018-12-30T05:07:46.356Z,97553.05
2018-12-30T05:10:17.067Z,97533.94
2018-12-30T05:13:06.829Z,97564.07
2018-12-30T05:15:48.793Z,97561.87
2018-12-30T05:18:38.622Z,97542.97
2018-12-30T05:21:28.400Z,97564.56
2018-12-30T05:24:18.202Z,97588.67
2018-12-30T05:27:08.120Z,97593.23
2018-12-30T05:29:57.942Z,97613.63
2018-12-30T05:32:47.710Z,97594.99
2018-12-30T05:35:30.478Z,97608.91
2018-12-30T05:38:20.248Z,97595.18
2018-12-30T05:41:10.116Z,97591.52
2018-12-30T05:43:59.872Z,97590.39
2018-12-30T05:46:49.667Z,97599.59
2018-12-30T05:49:39.408Z,97601.25
2018-12-30T05:55:32.831Z,97591.63
2018-12-30T05:58:15.343Z,97602.23
2018-12-30T06:01:05.180Z,97615.14
2018-12-30T06:03:55.181Z,97620.47
2018-12-30T06:06:44.898Z,97599.95
2018-12-30T06:09:27.036Z,97611.01
2018-12-30T06:12:16.947Z,97628.21
2018-12-30T06:15:07.184Z,97629.30
2018-12-30T06:17:56.960Z,97640.77
2018-12-30T06:20:46.726Z,97630.37
2018-12-30T06:23:36.531Z,97623.42
2018-12-30T06:26:26.391Z,97627.20
2018-12-30T06:29:35.242Z,97636.88
2018-12-30T06:32:24.977Z,97641.66
2018-12-30T06:35:07.374Z,97649.59
2018-12-30T06:37:57.213Z,97635.12
2018-12-30T06:40:47.049Z,97659.89
2018-12-30T06:43:36.822Z,97674.93
2018-12-30T06:46:26.639Z,97678.02
2018-12-30T06:49:10.602Z,97685.00
2018-12-30T06:51:53.218Z,97675.14
2018-12-30T06:54:43.006Z,97678.63
2018-12-30T06:57:32.890Z,97679.33
2018-12-30T07:00:22.704Z,97681.70
2018-12-30T07:03:12.520Z,97677.52
2018-12-30T07:06:02.353Z,97685.64
2018-12-30T07:08:52.160Z,97696.03
2018-12-30T07:11:34.706Z,97708.08
2018-12-30T07:14:24.514Z,97683.15
2018-12-30T07:22:30.874Z,97694.23
2018-12-30T07:25:01.529Z,97724.45
2018-12-30T07:27:51.352Z,97717.41
2018-12-30T07:30:41.497Z,97723.87
2018-12-30T07:33:23.602Z,97698.80
2018-12-30T07:36:13.362Z,97724.84
2018-12-30T07:38:57.237Z,97728.02
2018-12-30T07:41:46.959Z,97720.75
2018-12-30T07:44:29.492Z,97724.58
2018-12-30T07:47:19.242Z,97726.56
2018-12-30T07:50:01.722Z,97724.44
2018-12-30T07:52:51.492Z,97718.84
2018-12-30T07:55:33.427Z,97727.24
2018-12-30T07:58:23.246Z,97733.20
2018-12-30T08:01:05.725Z,97730.20
2018-12-30T08:03:55.483Z,97738.77
2018-12-30T08:06:38.361Z,97750.24
2018-12-30T08:09:28.125Z,97756.88
2018-12-30T08:12:10.427Z,97752.09
2018-12-30T08:15:00.241Z,97765.34
2018-12-30T08:21:03.516Z,97777.59
2018-12-30T08:23:53.553Z,97778.30
2018-12-30T08:26:43.351Z,97770.70
2018-12-30T08:29:33.161Z,97774.48
2018-12-30T08:32:23.011Z,97780.62
2018-12-30T08:35:12.918Z,97769.40
2018-12-30T08:38:02.666Z,97784.92
2018-12-30T08:40:52.401Z,97765.45
2018-12-30T08:43:42.152Z,97794.30
2018-12-30T08:46:24.084Z,97803.45
2018-12-30T08:49:13.835Z,97805.95
2018-12-30T08:52:00.936Z,97785.86
2018-12-30T08:54:52.122Z,97808.81
2018-12-30T08:57:35.005Z,97805.80
2018-12-30T09:00:06.280Z,97808.67
2018-12-30T09:02:56.035Z,97810.33
2018-12-30T09:05:38.943Z,97821.00
2018-12-30T09:11:24.034Z,97820.80
2018-12-30T09:17:10.465Z,97829.43
2018-12-30T09:20:00.236Z,97814.42
2018-12-30T09:22:42.702Z,97824.60
2018-12-30T09:25:32.434Z,97839.92
2018-12-30T09:28:18.504Z,97835.34
2018-12-30T09:34:15.064Z,97830.89
2018-12-30T09:36:57.431Z,97826.84
2018-12-30T09:39:47.213Z,97826.04
2018-12-30T09:42:37.397Z,97824.56
2018-12-30T09:45:26.601Z,97824.90
2018-12-30T09:48:15.741Z,97817.41
2018-12-30T09:51:05.649Z,97816.42
2018-12-30T09:53:55.440Z,97807.12
2018-12-30T09:56:37.856Z,97808.29
2018-12-30T09:59:27.921Z,97807.54
2018-12-30T10:02:17.741Z,97796.55
2018-12-30T10:05:07.601Z,97792.45
2018-12-30T10:10:55.015Z,97786.42
2018-12-30T10:13:38.120Z,97764.37
2018-12-30T10:19:25.647Z,97773.30
2018-12-30T10:22:15.479Z,97776.88
2018-12-30T10:24:57.715Z,97793.84
2018-12-30T10:27:47.447Z,97802.64
2018-12-30T10:30:29.926Z,97803.93
2018-12-30T10:33:19.980Z,97806.58
2018-12-30T10:36:06.445Z,97811.37
2018-12-30T10:38:56.195Z,97814.61
2018-12-30T10:41:40.741Z,97815.91
2018-12-30T10:44:30.516Z,97810.08
2018-12-30T10:47:13.993Z,97805.44
2018-12-30T10:50:03.750Z,97803.55
2018-12-30T10:52:46.126Z,97786.94
2018-12-30T10:55:35.954Z,97795.20
2018-12-30T10:58:18.761Z,97810.56
2018-12-30T11:01:08.531Z,97807.17
2018-12-30T11:03:50.696Z,97814.53
2018-12-30T11:06:40.476Z,97809.89
2018-12-30T11:09:22.661Z,97808.80
2018-12-30T11:12:13.224Z,97803.69
2018-12-30T11:14:57.320Z,97803.64
2018-12-30T11:17:47.079Z,97797.50
2018-12-30T11:20:29.091Z,97793.88
2018-12-30T11:23:37.914Z,97791.02
2018-12-30T11:26:20.377Z,97795.60
2018-12-30T11:29:10.219Z,97799.16
2018-12-30T11:32:00.237Z,97798.20
2018-12-30T11:34:50.066Z,97786.08
2018-12-30T11:37:39.916Z,97774.20
2018-12-30T11:46:10.893Z,97767.40
2018-12-30T11:48:54.310Z,97760.31
2018-12-30T11:51:36.719Z,97781.41
2018-12-30T11:57:21.896Z,97786.52
2018-12-30T12:00:06.673Z,97781.92
2018-12-30T12:02:56.562Z,97779.39
2018-12-30T12:05:46.446Z,97778.96
2018-12-30T12:08:36.291Z,97772.36
2018-12-30T12:11:26.104Z,97743.81
2018-12-30T12:14:15.945Z,97743.09
2018-12-30T12:17:05.773Z,97740.53
2018-12-30T12:19:55.843Z,97753.04
2018-12-30T12:22:45.566Z,97749.80
2018-12-30T12:25:28.854Z,97748.45
2018-12-30T12:31:15.022Z,97731.66
2018-12-30T12:34:04.162Z,97752.63
2018-12-30T12:36:46.759Z,97747.34
2018-12-30T12:39:36.468Z,97738.64
2018-12-30T12:42:19.944Z,97746.31
2018-12-30T12:45:09.654Z,97745.58
2018-12-30T12:47:52.400Z,97748.95
2018-12-30T12:50:42.116Z,97749.34
2018-12-30T12:53:24.614Z,97717.72
2018-12-30T12:56:14.375Z,97734.91
2018-12-30T12:58:56.968Z,97743.08
2018-12-30T13:01:46.724Z,97719.74
2018-12-30T13:04:29.295Z,97726.95
2018-12-30T13:07:19.024Z,97754.61
2018-12-30T13:10:01.518Z,97780.35
2018-12-30T13:12:51.287Z,97776.56
2018-12-30T13:15:34.022Z,97793.73
2018-12-30T13:18:23.776Z,97770.75
2018-12-30T13:21:06.200Z,97777.77
2018-12-30T13:23:55.943Z,97749.09
2018-12-30T13:26:38.718Z,97753.28
2018-12-30T13:29:28.530Z,97742.07
2018-12-30T13:32:10.588Z,97737.77
2018-12-30T13:35:00.368Z,97746.06
2018-12-30T13:37:50.116Z,97747.28
2018-12-30T13:40:39.853Z,97732.43
2018-12-30T13:43:29.610Z,97731.88
2018-12-30T13:46:13.764Z,97709.40
2018-12-30T13:49:03.520Z,97732.63
2018-12-30T13:51:46.350Z,97732.98
2018-12-30T13:54:28.518Z,97735.39
2018-12-30T14:00:08.751Z,97748.56
2018-12-30T14:02:58.511Z,97741.81
2018-12-30T14:05:40.698Z,97740.12
2018-12-30T14:08:30.437Z,97775.14
2018-12-30T14:11:12.846Z,97774.97
2018-12-30T14:14:02.586Z,97757.17
2018-12-30T14:16:52.346Z,97767.17
2018-12-30T14:19:35.883Z,97747.34
2018-12-30T14:22:18.052Z,97737.22
2018-12-30T14:25:07.801Z,97742.88
2018-12-30T14:27:50.221Z,97725.60
2018-12-30T14:30:39.966Z,97703.27
2018-12-30T14:33:22.857Z,97673.72
2018-12-30T14:36:12.591Z,97674.98
2018-12-30T14:38:55.504Z,97693.35
2018-12-30T14:41:45.298Z,97686.92
2018-12-30T14:44:27.588Z,97696.86
2018-12-30T14:47:17.319Z,97721.48
2018-12-30T14:50:01.069Z,97758.05
2018-12-30T14:52:50.814Z,97752.75
2018-12-30T14:55:32.995Z,97752.01
2018-12-30T14:58:22.765Z,97752.19
2018-12-30T15:01:05.280Z,97754.14
2018-12-30T15:03:55.037Z,97741.47
2018-12-30T15:06:37.303Z,97736.94
2018-12-30T15:09:27.282Z,97748.22
2018-12-30T15:12:10.080Z,97752.64
2018-12-30T15:14:59.828Z,97739.48
2018-12-30T15:17:41.827Z,97760.26
2018-12-30T15:20:31.548Z,97759.22
2018-12-30T15:23:13.995Z,97754.38
2018-12-30T15:26:03.751Z,97758.20
2018-12-30T15:28:53.466Z,97763.80
2018-12-30T15:31:37.033Z,97762.42
2018-12-30T15:34:19.689Z,97766.20
2018-12-30T15:37:09.476Z,97769.44
2018-12-30T15:39:59.258Z,97762.58
2018-12-30T15:42:49.039Z,97772.24
2018-12-30T15:45:38.969Z,97776.39
2018-12-30T15:48:28.783Z,97767.81
2018-12-30T15:51:18.525Z,97760.53
2018-12-30T15:54:08.276Z,97746.96
2018-12-30T15:56:58.046Z,97747.84
2018-12-30T15:59:47.773Z,97754.98
2018-12-30T16:02:29.927Z,97764.80
2018-12-30T16:05:19.701Z,97758.92
2018-12-30T16:08:09.427Z,97755.45
2018-12-30T16:10:59.239Z,97757.89
2018-12-30T16:13:48.990Z,97767.69
2018-12-30T16:16:38.785Z,97750.97
2018-12-30T16:19:28.602Z,97769.70
2018-12-30T16:22:18.377Z,97771.75
2018-12-30T16:25:08.249Z,97773.57
2018-12-30T16:27:58.057Z,97770.95
2018-12-30T16:30:47.835Z,97748.03
2018-12-30T16:33:37.599Z,97727.55
2018-12-30T16:36:27.381Z,97745.85
2018-12-30T16:39:36.325Z,97733.19
2018-12-30T16:42:26.149Z,97756.19
2018-12-30T16:45:15.927Z,97756.19
2018-12-30T16:48:05.741Z,97741.75
2018-12-30T16:50:56.346Z,97729.73
2018-12-30T16:53:46.163Z,97744.25
2018-12-30T16:56:36.084Z,97734.50
2018-12-30T16:59:25.839Z,97726.79
2018-12-30T17:02:15.646Z,97735.14
2018-12-30T17:05:06.298Z,97732.11
2018-12-30T17:08:15.302Z,97741.55
2018-12-30T17:11:05.069Z,97746.14
2018-12-30T17:13:54.833Z,97733.95
2018-12-30T17:16:44.625Z,97734.18
2018-12-30T17:19:34.425Z,97743.80
2018-12-30T17:22:24.191Z,97746.26
2018-12-30T17:25:14.055Z,97726.89
2018-12-30T17:28:03.767Z,97736.70
2018-12-30T17:30:53.510Z,97725.31
2018-12-30T17:33:35.666Z,97724.25
2018-12-30T17:36:25.483Z,97708.34
2018-12-30T17:39:15.200Z,97682.58
2018-12-30T17:42:04.934Z,97705.16
2018-12-30T17:47:56.412Z,97707.35
2018-12-30T17:50:46.155Z,97693.55
2018-12-30T17:53:28.425Z,97688.55
2018-12-30T17:56:18.160Z,97686.88
2018-12-30T17:59:00.928Z,97677.56
2018-12-30T18:01:50.702Z,97687.50
2018-12-30T18:04:40.464Z,97680.98
2018-12-30T18:07:22.882Z,97674.50
2018-12-30T18:10:12.602Z,97654.83
2018-12-30T18:15:56.324Z,97661.73
2018-12-30T18:18:46.111Z,97673.05
2018-12-30T18:26:52.438Z,97681.29
2018-12-30T18:29:42.142Z,97676.78
2018-12-30T18:32:24.590Z,97668.25
2018-12-30T18:35:14.291Z,97682.44
2018-12-30T18:37:56.744Z,97684.29
2018-12-30T18:40:46.512Z,97679.08
2018-12-30T18:43:28.882Z,97683.11
2018-12-30T18:46:18.614Z,97683.30
2018-12-30T18:48:49.295Z,97673.56
2018-12-30T18:51:39.017Z,97679.26
2018-12-30T18:54:21.379Z,97656.09
2018-12-30T18:57:11.087Z,97681.53
2018-12-30T18:59:53.396Z,97689.00
2018-12-30T19:02:43.113Z,97705.14
2018-12-30T19:05:25.777Z,97701.50
2018-12-30T19:08:15.476Z,97721.66
2018-12-30T19:11:05.339Z,97683.35
2018-12-30T19:13:51.995Z,97727.45
2018-12-30T19:16:35.171Z,97735.95
2018-12-30T19:19:25.404Z,97747.15
2018-12-30T19:25:19.353Z,97754.47
2018-12-30T19:28:01.977Z,97748.16
2018-12-30T19:30:51.846Z,97745.22
2018-12-30T19:33:41.767Z,97736.92
2018-12-30T19:36:31.695Z,97733.07
2018-12-30T19:39:21.261Z,97741.29
2018-12-30T19:48:39.204Z,97749.44
2018-12-30T19:51:29.279Z,97742.38
2018-12-30T19:54:12.091Z,97709.03
2018-12-30T19:57:01.953Z,97741.77
2018-12-30T19:59:44.573Z,97739.38
2018-12-30T20:02:34.649Z,97734.63
2018-12-30T20:05:18.035Z,97727.50
2018-12-30T20:08:07.764Z,97718.40
2018-12-30T20:10:50.955Z,97716.55
2018-12-30T20:13:41.036Z,97721.94
2018-12-30T20:16:24.139Z,97720.55
2018-12-30T20:19:13.886Z,97712.84
2018-12-30T20:21:56.131Z,97700.58
2018-12-30T20:24:45.947Z,97687.38
2018-12-30T20:27:32.373Z,97684.09
2018-12-30T20:35:54.452Z,97670.47
2018-12-30T20:38:44.503Z,97664.79
2018-12-30T20:41:30.873Z,97662.03
2018-12-30T20:44:17.766Z,97671.70
2018-12-30T20:46:48.540Z,97656.13
2018-12-30T20:49:38.662Z,97662.27
2018-12-30T20:52:28.442Z,97663.92
2018-12-30T20:55:11.594Z,97669.60
2018-12-30T20:58:01.357Z,97673.73
2018-12-30T21:00:43.346Z,97678.66
2018-12-30T21:03:33.112Z,97680.14
2018-12-30T21:06:16.010Z,97675.58
2018-12-30T21:12:22.567Z,97673.41
2018-12-30T21:15:12.824Z,97676.09
2018-12-30T21:18:02.898Z,97678.66
2018-12-30T21:20:53.514Z,97655.98
2018-12-30T21:23:44.541Z,97677.61
2018-12-30T21:26:34.417Z,97676.53
2018-12-30T21:29:24.258Z,97672.10
2018-12-30T21:32:14.048Z,97676.30
2018-12-30T21:34:56.182Z,97682.31
2018-12-30T21:37:46.212Z,97681.56
2018-12-30T21:40:36.068Z,97685.12
2018-12-30T21:43:25.793Z,97675.20
2018-12-30T21:49:19.182Z,97701.55
2018-12-30T21:52:01.362Z,97697.48
2018-12-30T21:54:51.084Z,97705.64
2018-12-30T21:57:40.808Z,97699.98
2018-12-30T22:00:30.542Z,97697.13
2018-12-30T22:03:12.810Z,97687.22
2018-12-30T22:06:02.603Z,97700.96
2018-12-30T22:08:45.224Z,97694.39
2018-12-30T22:11:34.976Z,97689.86
2018-12-30T22:17:20.973Z,97686.25
2018-12-30T22:20:10.744Z,97686.09
2018-12-30T22:22:53.542Z,97681.94
2018-12-30T22:25:43.293Z,97693.52
2018-12-30T22:28:25.714Z,97693.92
2018-12-30T22:31:15.481Z,97689.45
2018-12-30T22:33:57.876Z,97688.27
2018-12-30T22:39:46.916Z,97700.83
2018-12-30T22:42:32.976Z,97716.03
2018-12-30T22:45:20.558Z,97705.62
2018-12-30T22:51:13.955Z,97710.38
2018-12-30T22:53:56.153Z,97722.25
2018-12-30T22:56:58.295Z,97718.81
2018-12-30T22:59:44.403Z,97708.28
2018-12-30T23:02:34.505Z,97713.23
2018-12-30T23:05:17.686Z,97722.50
2018-12-30T23:08:07.453Z,97708.61
2018-12-30T23:10:53.507Z,97728.38
2018-12-30T23:13:43.296Z,97730.34
2018-12-30T23:16:25.509Z,97715.80
2018-12-30T23:19:15.233Z,97699.94
2018-12-30T23:21:57.221Z,97718.74
2018-12-30T23:24:46.992Z,97714.27
2018-12-30T23:27:29.683Z,97716.92
2018-12-30T23:30:19.476Z,97717.39
2018-12-30T23:33:06.526Z,97703.16
2018-12-30T23:35:56.315Z,97704.77
2018-12-30T23:38:39.423Z,97713.91
2018-12-30T23:41:29.436Z,97710.74
2018-12-30T23:44:13.949Z,97708.84
2018-12-30T23:47:03.062Z,97706.32
2018-12-30T23:49:47.093Z,97712.92
2018-12-30T23:52:36.882Z,97689.77
2018-12-30T23:55:19.347Z,97696.38
2018-12-30T23:58:09.075Z,97697.05
